Tuesday, August 21, 2018, 9:55 AM EDT
Back to Local

KJFK, Kennedy International Airport

Location: Rosedale, NY, United States Lat: 40.633
Local Time: 9:55 AM EDT (13:55 GMT) Lon: -73.767
Time Zone: US/Eastern Elev: 13 ft

Show me the last for .
Show Decoded

2018-08-21 08:51 METAR KJFK 211251Z 07009KT 10SM FEW013 SCT080 21/18 A3012 RMK AO2 SLP197
                 T02110178 =
2018-08-21 07:51 METAR KJFK 211151Z 09007KT 10SM FEW017 FEW080 FEW250 19/18 A3012 RMK AO2 SLP200
                 T01940183 10194 20178 53000 =
2018-08-21 06:51 METAR KJFK 211051Z 06005KT 10SM FEW015 FEW080 FEW250 18/17 A3012 RMK AO2 SLP198
                 T01780172 =
2018-08-21 05:51 METAR KJFK 210951Z 06005KT 10SM FEW015 SCT250 18/17 A3012 RMK AO2 SLP198
                 T01780172 =
2018-08-21 04:51 METAR KJFK 210851Z 05005KT 10SM FEW015 FEW070 BKN250 18/18 A3012 RMK AO2 SLP200
                 T01780178 55010 =
2018-08-21 03:51 METAR KJFK 210751Z 05005KT 10SM FEW015 FEW070 BKN250 18/18 A3012 RMK AO2 SLP198
                 T01780178 =
2018-08-21 02:51 METAR KJFK 210651Z 04003KT 10SM FEW015 SCT070 BKN250 19/18 A3014 RMK AO2 SLP204
                 T01890183 =
2018-08-21 00:51 METAR KJFK 210451Z 06003KT 10SM FEW015 SCT070 BKN250 20/19 A3016 RMK AO2 SLP212
                 T02000189 402330194 =
2018-08-20 23:51 METAR KJFK 210351Z 09003KT 10SM FEW010 SCT070 BKN250 20/19 A3016 RMK AO2 SLP212
                 T02000189 =
2018-08-20 22:51 METAR KJFK 210251Z 07003KT 10SM FEW011 SCT070 21/19 A3015 RMK AO2 SLP209
                 T02060194 50006 =
2018-08-20 21:51 METAR KJFK 210151Z 07003KT 10SM FEW016 FEW035 BKN070 21/19 A3015 RMK AO2 SLP210
                 T02110194 =
2018-08-20 20:51 METAR KJFK 210051Z 10004KT 10SM FEW018 FEW035 OVC075 21/20 A3015 RMK AO2 SLP209
                 T02110200 =
2018-08-20 19:51 METAR KJFK 202351Z 15006KT 10SM FEW016 FEW035 BKN080 21/19 A3013 RMK AO2 SLP203
                 60000 T02060194 10233 20206 53002 =
2018-08-20 18:51 METAR KJFK 202251Z 10004KT 10SM FEW015 SCT035 BKN080 22/19 A3013 RMK AO2 SLP201
                 T02170194 =
2018-08-20 17:51 METAR KJFK 202151Z 13007KT 10SM SCT015 SCT035 BKN050 22/19 A3013 RMK AO2
                 RAB2052E01 SLP202 P0000 T02170194 =
2018-08-20 16:51 METAR KJFK 202051Z 14007KT 10SM SCT015 BKN035 BKN046 BKN250 22/20 A3013 RMK AO2
                 SLP201 T02220200 58009 =
2018-08-20 16:37 METAR KJFK 202037Z 13006KT 10SM FEW015 SCT030 BKN039 BKN250 22/20 A3013 RMK AO2
                 T02220200 =
2018-08-20 15:51 METAR KJFK 201951Z 13006KT 10SM BKN021 BKN038 OVC046 22/20 A3014 RMK AO2 SLP205
                 BKN021 V SCT T02220200 =
2018-08-20 15:15 METAR KJFK 201915Z 13005KT 10SM BKN021 OVC030 22/19 A3015 RMK AO2 T02220194 =
2018-08-20 14:51 METAR KJFK 201851Z 11003KT 10SM SCT023 BKN031 OVC043 23/19 A3015 RMK AO2 SLP209
                 T02280189 =
2018-08-20 13:51 METAR KJFK 201751Z 04007KT 10SM SCT026 OVC036 23/19 A3015 RMK AO2 RAB17E29
                 SLP210 VCSH SE P0000 60000 T02280189 10233 20206 53004 =
2018-08-20 12:51 METAR KJFK 201651Z 04005KT 10SM BKN022 OVC031 22/19 A3015 RMK AO2 SLP208 BKN022
                 V SCT T02220189 =
2018-08-20 11:51 METAR KJFK 201551Z 04008KT 10SM BKN022 BKN170 23/19 A3015 RMK AO2 SLP208
                 T02280189 =
2018-08-20 10:51 METAR KJFK 201451Z 04010KT 10SM BKN017 BKN038 BKN170 21/19 A3014 RMK AO2 SLP206
                 T02060189 50003 =

Support USWX by starting your Amazon purchase here.